ADDS METAR Data INFO
IDs: Format: Raw Decoded Include TAF

Data at: 1517 UTC 23 Oct 2017

KPGA 231453Z AUTO 00000KT 10SM CLR 12/M06 A3044 RMK AO2 SLP277 T01221056 53018 TSNO
KPGA 231353Z AUTO 00000KT 10SM CLR 08/M02 A3041 RMK AO2 SLP271 T00831022 TSNO
KPGA 231253Z AUTO 22004KT 10SM CLR 11/M06 A3038 RMK AO2 SLP256 T01061061 TSNO $
KPGA 231153Z AUTO 23003KT 10SM CLR 08/M04 A3038 RMK AO2 SLP254 T00831039 10139 20083 53001 TSNO $
KPGA 231053Z AUTO 00000KT 10SM CLR 09/M04 A3037 RMK AO2 SLP249 T00941044 TSNO $
KPGA 230953Z AUTO 22004KT 10SM CLR 12/M06 A3037 RMK AO2 SLP243 T01221056 TSNO $
KPGA 230853Z AUTO 00000KT 10SM CLR 12/M06 A3038 RMK AO2 SLP248 T01221056 53005 TSNO $
KPGA 230753Z AUTO 24003KT 10SM CLR 12/M05 A3036 RMK AO2 SLP244 T01171050 TSNO $
KPGA 230653Z AUTO 00000KT 10SM CLR 12/M04 A3037 RMK AO2 SLP250 T01221044 402110061 TSNO $
KPGA 230553Z AUTO 22006KT 10SM CLR 14/M07 A3036 RMK AO2 SLP247 T01391067 10200 20122 50003 TSNO $
KPGA 230453Z AUTO 25003KT 10SM CLR 12/M05 A3037 RMK AO2 SLP254 T01221050 TSNO $
KPGA 230353Z AUTO 22004KT 10SM CLR 14/M06 A3036 RMK AO2 SLP251 T01441056 TSNO $
KPGA 230253Z AUTO 15005KT 10SM CLR 15/M07 A3035 RMK AO2 SLP250 T01501067 53011 TSNO $
KPGA 230153Z AUTO 13006KT 10SM CLR 16/M06 A3034 RMK AO2 SLP249 T01611061 TSNO $
KPGA 230053Z AUTO 11003KT 10SM CLR 17/M06 A3032 RMK AO2 SLP239 T01721056 TSNO $
KPGA 222353Z AUTO 00000KT 10SM CLR 20/M06 A3031 RMK AO2 SLP232 T02001061 10211 20150 56013 TSNO $
KPGA 222253Z AUTO VRB05KT 10SM CLR 21/M07 A3033 RMK AO2 SLP235 T02061072 TSNO $
KPGA 222153Z AUTO 01006KT 10SM CLR 21/M08 A3033 RMK AO2 SLP238 T02061078 TSNO $
KPGA 222053Z AUTO VRB03KT 10SM CLR 19/M08 A3036 RMK AO2 SLP246 T01941083 58020 TSNO $
KPGA 221953Z AUTO 02003KT 10SM CLR 18/M08 A3038 RMK AO2 SLP258 T01781078 TSNO $
KPGA 221853Z AUTO VRB04KT 10SM CLR 17/M08 A3041 RMK AO2 SLP267 T01671083 TSNO $
KPGA 221753Z AUTO 35005KT 10SM CLR 15/M08 A3042 RMK AO2 SLP274 T01501078 10150 20061 50006 TSNO $
KPGA 221653Z AUTO VRB03KT 10SM CLR 14/M09 A3043 RMK AO2 SLP277 T01441089 TSNO $
KPGA 221553Z AUTO VRB04KT 10SM CLR 11/M09 A3043 RMK AO2 SLP282 T01061089 TSNO $
KPGA 221453Z AUTO 28003KT 10SM CLR 09/M11 A3040 RMK AO2 SLP274 T00941106 53016 TSNO $
KPGA 221353Z AUTO 00000KT 10SM CLR 06/M08 A3037 RMK AO2 SLP265 T00611083 TSNO $
KPGA 221253Z AUTO 00000KT 10SM CLR 07/M09 A3036 RMK AO2 SLP258 T00671089 TSNO $
KPGA 221153Z AUTO 25003KT 10SM CLR 08/M09 A3035 RMK AO2 SLP250 T00781089 10100 20072 53004 TSNO $
KPGA 221053Z AUTO 28003KT 10SM CLR 08/M08 A3034 RMK AO2 SLP245 T00781083 TSNO $
KPGA 220953Z AUTO 16003KT 10SM CLR 08/M09 A3033 RMK AO2 SLP243 T00781089 TSNO $
KPGA 220853Z AUTO 26003KT 10SM CLR 09/M07 A3034 RMK AO2 SLP245 T00891072 51009 TSNO $
KPGA 220753Z AUTO 00000KT 9SM CLR 08/M07 A3033 RMK AO2 SLP245 T00831067 TSNO $
KPGA 220653Z AUTO 00000KT 10SM CLR 09/M06 A3032 RMK AO2 SLP240 T00941061 401670083 TSNO $
KPGA 220553Z AUTO 00000KT 10SM CLR 10/M07 A3031 RMK AO2 SLP234 T01001067 10161 20089 51015 TSNO $
KPGA 220453Z AUTO 16005KT 10SM CLR 10/M09 A3030 RMK AO2 SLP235 T01001094 TSNO $
KPGA 220353Z AUTO 00000KT 10SM CLR 11/M07 A3028 RMK AO2 SLP227 T01061067 TSNO $